sensor_id;sensor_type;location;lat;lon;timestamp;P1;durP1;ratioP1;P2;durP2;ratioP2
24761;SDS011;12865;51.934;10.330;2022-10-31T00:00:32;9.80;;;4.78;;
24761;SDS011;12865;51.934;10.330;2022-10-31T00:03:17;8.13;;;4.35;;
24761;SDS011;12865;51.934;10.330;2022-10-31T00:06:03;10.80;;;4.28;;
24761;SDS011;12865;51.934;10.330;2022-10-31T00:08:56;7.18;;;4.05;;
24761;SDS011;12865;51.934;10.330;2022-10-31T00:11:44;10.25;;;3.88;;
24761;SDS011;12865;51.934;10.330;2022-10-31T00:14:29;6.57;;;3.95;;
24761;SDS011;12865;51.934;10.330;2022-10-31T00:17:15;6.63;;;4.28;;
24761;SDS011;12865;51.934;10.330;2022-10-31T00:20:00;14.75;;;4.35;;
24761;SDS011;12865;51.934;10.330;2022-10-31T00:22:46;7.18;;;4.25;;
24761;SDS011;12865;51.934;10.330;2022-10-31T00:25:36;11.35;;;4.47;;
24761;SDS011;12865;51.934;10.330;2022-10-31T00:28:24;8.75;;;4.40;;
24761;SDS011;12865;51.934;10.330;2022-10-31T00:31:10;11.48;;;4.65;;
24761;SDS011;12865;51.934;10.330;2022-10-31T00:33:57;6.93;;;3.88;;
24761;SDS011;12865;51.934;10.330;2022-10-31T00:36:43;8.68;;;4.85;;
24761;SDS011;12865;51.934;10.330;2022-10-31T00:39:29;13.85;;;4.78;;
24761;SDS011;12865;51.934;10.330;2022-10-31T00:42:15;11.23;;;4.35;;
24761;SDS011;12865;51.934;10.330;2022-10-31T00:45:01;11.35;;;4.80;;
24761;SDS011;12865;51.934;10.330;2022-10-31T00:47:46;10.68;;;4.60;;
24761;SDS011;12865;51.934;10.330;2022-10-31T00:50:32;9.48;;;4.22;;
24761;SDS011;12865;51.934;10.330;2022-10-31T00:53:18;9.98;;;5.15;;
24761;SDS011;12865;51.934;10.330;2022-10-31T00:56:03;12.88;;;4.97;;
24761;SDS011;12865;51.934;10.330;2022-10-31T00:58:50;12.50;;;4.53;;
24761;SDS011;12865;51.934;10.330;2022-10-31T01:01:35;7.05;;;3.72;;
24761;SDS011;12865;51.934;10.330;2022-10-31T01:04:21;13.10;;;4.70;;
24761;SDS011;12865;51.934;10.330;2022-10-31T01:07:07;11.73;;;5.00;;
24761;SDS011;12865;51.934;10.330;2022-10-31T01:09:52;11.02;;;4.53;;
24761;SDS011;12865;51.934;10.330;2022-10-31T01:12:39;8.32;;;4.63;;
24761;SDS011;12865;51.934;10.330;2022-10-31T01:15:26;8.98;;;4.80;;
24761;SDS011;12865;51.934;10.330;2022-10-31T01:18:11;8.32;;;5.10;;
24761;SDS011;12865;51.934;10.330;2022-10-31T01:21:02;12.40;;;5.25;;
24761;SDS011;12865;51.934;10.330;2022-10-31T01:23:50;11.55;;;5.05;;
24761;SDS011;12865;51.934;10.330;2022-10-31T01:26:38;8.70;;;5.33;;
24761;SDS011;12865;51.934;10.330;2022-10-31T01:29:23;10.07;;;4.93;;
24761;SDS011;12865;51.934;10.330;2022-10-31T01:32:09;15.32;;;4.97;;
24761;SDS011;12865;51.934;10.330;2022-10-31T01:34:55;8.25;;;4.88;;
24761;SDS011;12865;51.934;10.330;2022-10-31T01:37:40;9.57;;;5.88;;
24761;SDS011;12865;51.934;10.330;2022-10-31T01:40:29;13.20;;;5.20;;
24761;SDS011;12865;51.934;10.330;2022-10-31T01:43:15;13.50;;;5.80;;
24761;SDS011;12865;51.934;10.330;2022-10-31T01:46:01;11.80;;;5.18;;
24761;SDS011;12865;51.934;10.330;2022-10-31T01:48:46;10.45;;;5.13;;
24761;SDS011;12865;51.934;10.330;2022-10-31T01:51:34;9.38;;;5.07;;
24761;SDS011;12865;51.934;10.330;2022-10-31T01:54:23;11.65;;;5.30;;
24761;SDS011;12865;51.934;10.330;2022-10-31T01:57:14;10.18;;;5.80;;
24761;SDS011;12865;51.934;10.330;2022-10-31T02:00:04;12.73;;;5.20;;
24761;SDS011;12865;51.934;10.330;2022-10-31T02:02:52;11.02;;;5.57;;
24761;SDS011;12865;51.934;10.330;2022-10-31T02:05:37;11.10;;;5.88;;
24761;SDS011;12865;51.934;10.330;2022-10-31T02:08:30;12.55;;;5.78;;
24761;SDS011;12865;51.934;10.330;2022-10-31T02:11:18;10.63;;;5.53;;
24761;SDS011;12865;51.934;10.330;2022-10-31T02:14:04;11.50;;;5.05;;
24761;SDS011;12865;51.934;10.330;2022-10-31T02:16:50;10.27;;;5.25;;
24761;SDS011;12865;51.934;10.330;2022-10-31T02:29:27;13.30;;;5.82;;
24761;SDS011;12865;51.934;10.330;2022-10-31T02:41:46;16.98;;;6.80;;
24761;SDS011;12865;51.934;10.330;2022-10-31T02:47:29;9.35;;;5.90;;
24761;SDS011;12865;51.934;10.330;2022-10-31T02:50:23;11.45;;;5.88;;
24761;SDS011;12865;51.934;10.330;2022-10-31T02:53:14;13.25;;;6.63;;
24761;SDS011;12865;51.934;10.330;2022-10-31T02:56:02;14.60;;;6.22;;
24761;SDS011;12865;51.934;10.330;2022-10-31T02:58:56;17.70;;;8.20;;
24761;SDS011;12865;51.934;10.330;2022-10-31T03:08:03;13.48;;;7.72;;
24761;SDS011;12865;51.934;10.330;2022-10-31T03:14:19;10.63;;;6.80;;
24761;SDS011;12865;51.934;10.330;2022-10-31T03:17:09;12.27;;;6.47;;
24761;SDS011;12865;51.934;10.330;2022-10-31T03:20:05;18.50;;;9.57;;
24761;SDS011;12865;51.934;10.330;2022-10-31T03:22:54;20.40;;;9.63;;
24761;SDS011;12865;51.934;10.330;2022-10-31T03:25:42;21.42;;;11.93;;
24761;SDS011;12865;51.934;10.330;2022-10-31T03:28:29;21.38;;;11.57;;
24761;SDS011;12865;51.934;10.330;2022-10-31T03:31:22;20.98;;;10.10;;
24761;SDS011;12865;51.934;10.330;2022-10-31T03:34:14;23.05;;;9.77;;
24761;SDS011;12865;51.934;10.330;2022-10-31T03:37:03;18.80;;;10.95;;
24761;SDS011;12865;51.934;10.330;2022-10-31T03:39:51;17.70;;;9.00;;
24761;SDS011;12865;51.934;10.330;2022-10-31T03:42:41;21.30;;;8.57;;
24761;SDS011;12865;51.934;10.330;2022-10-31T03:45:31;18.98;;;9.80;;
24761;SDS011;12865;51.934;10.330;2022-10-31T03:48:18;16.85;;;9.25;;
24761;SDS011;12865;51.934;10.330;2022-10-31T03:51:08;18.98;;;9.43;;
24761;SDS011;12865;51.934;10.330;2022-10-31T04:00:19;14.85;;;9.02;;
24761;SDS011;12865;51.934;10.330;2022-10-31T04:03:06;23.90;;;12.57;;
24761;SDS011;12865;51.934;10.330;2022-10-31T04:05:57;20.80;;;10.50;;
24761;SDS011;12865;51.934;10.330;2022-10-31T04:08:57;13.55;;;10.40;;
24761;SDS011;12865;51.934;10.330;2022-10-31T04:11:48;20.05;;;10.65;;
24761;SDS011;12865;51.934;10.330;2022-10-31T04:14:37;20.13;;;9.65;;
24761;SDS011;12865;51.934;10.330;2022-10-31T04:20:15;15.57;;;9.47;;
24761;SDS011;12865;51.934;10.330;2022-10-31T04:23:02;19.00;;;11.18;;
24761;SDS011;12865;51.934;10.330;2022-10-31T04:25:49;20.15;;;10.73;;
24761;SDS011;12865;51.934;10.330;2022-10-31T04:28:34;16.73;;;11.00;;
24761;SDS011;12865;51.934;10.330;2022-10-31T04:31:20;20.38;;;10.85;;
24761;SDS011;12865;51.934;10.330;2022-10-31T04:34:06;20.98;;;12.02;;
24761;SDS011;12865;51.934;10.330;2022-10-31T04:36:52;20.02;;;12.52;;
24761;SDS011;12865;51.934;10.330;2022-10-31T04:39:38;23.88;;;12.65;;
24761;SDS011;12865;51.934;10.330;2022-10-31T04:42:23;20.38;;;10.48;;
24761;SDS011;12865;51.934;10.330;2022-10-31T04:45:09;19.45;;;9.60;;
24761;SDS011;12865;51.934;10.330;2022-10-31T04:47:55;18.52;;;10.15;;
24761;SDS011;12865;51.934;10.330;2022-10-31T04:50:40;19.95;;;10.32;;
24761;SDS011;12865;51.934;10.330;2022-10-31T04:53:26;23.50;;;11.13;;
24761;SDS011;12865;51.934;10.330;2022-10-31T04:56:12;20.92;;;11.98;;
24761;SDS011;12865;51.934;10.330;2022-10-31T04:58:58;23.40;;;12.55;;
24761;SDS011;12865;51.934;10.330;2022-10-31T05:01:44;22.90;;;12.00;;
24761;SDS011;12865;51.934;10.330;2022-10-31T05:04:29;18.85;;;11.20;;
24761;SDS011;12865;51.934;10.330;2022-10-31T05:07:15;19.83;;;12.20;;
24761;SDS011;12865;51.934;10.330;2022-10-31T05:10:00;20.58;;;11.45;;
24761;SDS011;12865;51.934;10.330;2022-10-31T05:12:53;25.00;;;11.73;;
24761;SDS011;12865;51.934;10.330;2022-10-31T05:15:41;23.77;;;11.93;;
24761;SDS011;12865;51.934;10.330;2022-10-31T05:18:26;21.13;;;11.48;;
24761;SDS011;12865;51.934;10.330;2022-10-31T05:21:12;25.63;;;11.45;;
24761;SDS011;12865;51.934;10.330;2022-10-31T05:23:58;20.30;;;11.55;;
24761;SDS011;12865;51.934;10.330;2022-10-31T05:26:43;23.85;;;12.35;;
24761;SDS011;12865;51.934;10.330;2022-10-31T05:29:29;21.05;;;11.57;;
24761;SDS011;12865;51.934;10.330;2022-10-31T05:32:18;21.48;;;11.98;;
24761;SDS011;12865;51.934;10.330;2022-10-31T05:35:04;22.48;;;13.25;;
24761;SDS011;12865;51.934;10.330;2022-10-31T05:37:53;20.48;;;13.63;;
24761;SDS011;12865;51.934;10.330;2022-10-31T05:40:39;28.70;;;14.40;;
24761;SDS011;12865;51.934;10.330;2022-10-31T05:43:24;20.90;;;12.88;;
24761;SDS011;12865;51.934;10.330;2022-10-31T05:46:10;22.10;;;12.45;;
24761;SDS011;12865;51.934;10.330;2022-10-31T05:48:55;23.27;;;14.15;;
24761;SDS011;12865;51.934;10.330;2022-10-31T05:51:41;25.40;;;15.90;;
24761;SDS011;12865;51.934;10.330;2022-10-31T05:54:27;30.17;;;17.80;;
24761;SDS011;12865;51.934;10.330;2022-10-31T05:57:12;32.50;;;17.30;;
24761;SDS011;12865;51.934;10.330;2022-10-31T05:59:58;26.75;;;16.25;;
24761;SDS011;12865;51.934;10.330;2022-10-31T06:02:44;22.55;;;14.43;;
24761;SDS011;12865;51.934;10.330;2022-10-31T06:05:29;24.85;;;14.75;;
24761;SDS011;12865;51.934;10.330;2022-10-31T06:08:15;28.65;;;16.63;;
24761;SDS011;12865;51.934;10.330;2022-10-31T06:11:01;29.70;;;17.05;;
24761;SDS011;12865;51.934;10.330;2022-10-31T06:13:47;25.42;;;15.40;;
24761;SDS011;12865;51.934;10.330;2022-10-31T06:16:32;26.58;;;16.88;;
24761;SDS011;12865;51.934;10.330;2022-10-31T06:19:18;35.10;;;19.23;;
24761;SDS011;12865;51.934;10.330;2022-10-31T06:22:04;29.55;;;18.13;;
24761;SDS011;12865;51.934;10.330;2022-10-31T06:24:49;33.45;;;19.38;;
24761;SDS011;12865;51.934;10.330;2022-10-31T06:27:35;26.60;;;17.17;;
24761;SDS011;12865;51.934;10.330;2022-10-31T06:30:21;24.38;;;16.08;;
24761;SDS011;12865;51.934;10.330;2022-10-31T06:33:07;27.38;;;16.20;;
24761;SDS011;12865;51.934;10.330;2022-10-31T06:35:52;33.90;;;16.73;;
24761;SDS011;12865;51.934;10.330;2022-10-31T06:38:38;26.48;;;16.23;;
24761;SDS011;12865;51.934;10.330;2022-10-31T06:41:24;25.20;;;15.95;;
24761;SDS011;12865;51.934;10.330;2022-10-31T06:44:10;26.73;;;15.25;;
24761;SDS011;12865;51.934;10.330;2022-10-31T06:46:55;32.95;;;18.40;;
24761;SDS011;12865;51.934;10.330;2022-10-31T06:49:41;39.20;;;21.70;;
24761;SDS011;12865;51.934;10.330;2022-10-31T06:52:27;35.20;;;22.20;;
24761;SDS011;12865;51.934;10.330;2022-10-31T06:55:12;32.42;;;21.17;;
24761;SDS011;12865;51.934;10.330;2022-10-31T06:57:59;34.17;;;18.63;;
24761;SDS011;12865;51.934;10.330;2022-10-31T07:00:45;32.15;;;18.02;;
24761;SDS011;12865;51.934;10.330;2022-10-31T07:03:31;33.38;;;18.73;;
24761;SDS011;12865;51.934;10.330;2022-10-31T07:06:17;28.55;;;18.02;;
24761;SDS011;12865;51.934;10.330;2022-10-31T07:09:02;32.85;;;19.92;;
24761;SDS011;12865;51.934;10.330;2022-10-31T07:11:50;36.40;;;20.98;;
24761;SDS011;12865;51.934;10.330;2022-10-31T07:14:37;33.13;;;20.65;;
24761;SDS011;12865;51.934;10.330;2022-10-31T07:17:23;35.67;;;19.95;;
24761;SDS011;12865;51.934;10.330;2022-10-31T07:20:10;31.02;;;20.20;;
24761;SDS011;12865;51.934;10.330;2022-10-31T07:22:55;32.13;;;18.83;;
24761;SDS011;12865;51.934;10.330;2022-10-31T07:25:41;35.72;;;20.77;;
24761;SDS011;12865;51.934;10.330;2022-10-31T07:28:27;38.47;;;20.33;;
24761;SDS011;12865;51.934;10.330;2022-10-31T07:31:13;37.08;;;21.88;;
24761;SDS011;12865;51.934;10.330;2022-10-31T07:33:58;38.03;;;21.40;;
24761;SDS011;12865;51.934;10.330;2022-10-31T07:36:44;39.75;;;21.67;;
24761;SDS011;12865;51.934;10.330;2022-10-31T07:39:29;33.15;;;20.88;;
24761;SDS011;12865;51.934;10.330;2022-10-31T07:42:15;44.55;;;24.73;;
24761;SDS011;12865;51.934;10.330;2022-10-31T07:45:01;36.85;;;22.25;;
24761;SDS011;12865;51.934;10.330;2022-10-31T07:47:47;38.08;;;22.33;;
24761;SDS011;12865;51.934;10.330;2022-10-31T07:50:35;40.58;;;23.65;;
24761;SDS011;12865;51.934;10.330;2022-10-31T07:53:20;38.75;;;22.98;;
24761;SDS011;12865;51.934;10.330;2022-10-31T07:56:06;44.22;;;24.80;;
24761;SDS011;12865;51.934;10.330;2022-10-31T07:58:52;45.25;;;24.48;;
24761;SDS011;12865;51.934;10.330;2022-10-31T08:01:37;40.42;;;23.77;;
24761;SDS011;12865;51.934;10.330;2022-10-31T08:04:23;40.28;;;22.05;;
24761;SDS011;12865;51.934;10.330;2022-10-31T08:07:09;47.33;;;24.90;;
24761;SDS011;12865;51.934;10.330;2022-10-31T08:09:55;44.35;;;24.85;;
24761;SDS011;12865;51.934;10.330;2022-10-31T08:12:41;40.70;;;23.05;;
24761;SDS011;12865;51.934;10.330;2022-10-31T08:15:26;40.58;;;23.83;;
24761;SDS011;12865;51.934;10.330;2022-10-31T08:18:13;39.20;;;23.38;;
24761;SDS011;12865;51.934;10.330;2022-10-31T08:20:59;39.88;;;24.35;;
24761;SDS011;12865;51.934;10.330;2022-10-31T08:23:45;44.33;;;24.52;;
24761;SDS011;12865;51.934;10.330;2022-10-31T08:26:30;35.20;;;22.65;;
24761;SDS011;12865;51.934;10.330;2022-10-31T08:29:16;41.53;;;23.10;;
24761;SDS011;12865;51.934;10.330;2022-10-31T08:32:02;38.65;;;23.55;;
24761;SDS011;12865;51.934;10.330;2022-10-31T08:34:47;39.17;;;22.80;;
24761;SDS011;12865;51.934;10.330;2022-10-31T08:37:33;38.08;;;22.42;;
24761;SDS011;12865;51.934;10.330;2022-10-31T08:40:19;37.67;;;22.55;;
24761;SDS011;12865;51.934;10.330;2022-10-31T08:43:15;43.03;;;23.75;;
24761;SDS011;12865;51.934;10.330;2022-10-31T08:46:01;36.85;;;22.83;;
24761;SDS011;12865;51.934;10.330;2022-10-31T08:48:47;39.20;;;25.05;;
24761;SDS011;12865;51.934;10.330;2022-10-31T08:51:33;38.30;;;23.25;;
24761;SDS011;12865;51.934;10.330;2022-10-31T08:54:19;38.53;;;22.65;;
24761;SDS011;12865;51.934;10.330;2022-10-31T08:57:06;33.20;;;21.35;;
24761;SDS011;12865;51.934;10.330;2022-10-31T08:59:51;31.77;;;20.02;;
24761;SDS011;12865;51.934;10.330;2022-10-31T09:02:37;28.73;;;17.33;;
24761;SDS011;12865;51.934;10.330;2022-10-31T09:05:23;32.38;;;18.48;;
24761;SDS011;12865;51.934;10.330;2022-10-31T09:08:10;27.75;;;19.25;;
24761;SDS011;12865;51.934;10.330;2022-10-31T09:10:56;35.28;;;22.33;;
24761;SDS011;12865;51.934;10.330;2022-10-31T09:13:42;28.95;;;19.98;;
24761;SDS011;12865;51.934;10.330;2022-10-31T09:16:28;30.23;;;18.08;;
24761;SDS011;12865;51.934;10.330;2022-10-31T09:19:13;32.30;;;18.63;;
24761;SDS011;12865;51.934;10.330;2022-10-31T09:21:59;31.25;;;19.40;;
24761;SDS011;12865;51.934;10.330;2022-10-31T09:24:45;31.92;;;18.45;;
24761;SDS011;12865;51.934;10.330;2022-10-31T09:27:30;31.08;;;19.30;;
24761;SDS011;12865;51.934;10.330;2022-10-31T09:30:16;42.22;;;20.10;;
24761;SDS011;12865;51.934;10.330;2022-10-31T09:33:05;27.67;;;18.23;;
24761;SDS011;12865;51.934;10.330;2022-10-31T09:35:57;31.10;;;17.63;;
24761;SDS011;12865;51.934;10.330;2022-10-31T09:38:43;29.48;;;18.52;;
24761;SDS011;12865;51.934;10.330;2022-10-31T09:41:33;29.02;;;19.98;;
24761;SDS011;12865;51.934;10.330;2022-10-31T09:45:06;36.13;;;20.85;;
24761;SDS011;12865;51.934;10.330;2022-10-31T09:48:00;29.30;;;17.67;;
24761;SDS011;12865;51.934;10.330;2022-10-31T09:51:12;31.20;;;19.90;;
24761;SDS011;12865;51.934;10.330;2022-10-31T09:54:14;30.75;;;18.67;;
24761;SDS011;12865;51.934;10.330;2022-10-31T09:57:09;33.55;;;18.38;;
24761;SDS011;12865;51.934;10.330;2022-10-31T09:59:58;30.60;;;18.10;;
24761;SDS011;12865;51.934;10.330;2022-10-31T10:02:47;33.92;;;20.15;;
24761;SDS011;12865;51.934;10.330;2022-10-31T10:05:38;33.88;;;18.95;;
24761;SDS011;12865;51.934;10.330;2022-10-31T10:08:31;33.63;;;18.25;;
24761;SDS011;12865;51.934;10.330;2022-10-31T10:14:43;27.13;;;16.92;;
24761;SDS011;12865;51.934;10.330;2022-10-31T10:17:59;28.92;;;16.65;;
24761;SDS011;12865;51.934;10.330;2022-10-31T10:21:25;24.67;;;15.80;;
24761;SDS011;12865;51.934;10.330;2022-10-31T10:30:39;21.42;;;11.68;;
24761;SDS011;12865;51.934;10.330;2022-10-31T10:33:29;23.88;;;13.23;;
24761;SDS011;12865;51.934;10.330;2022-10-31T10:36:25;17.52;;;11.40;;
24761;SDS011;12865;51.934;10.330;2022-10-31T10:39:28;15.32;;;8.45;;
24761;SDS011;12865;51.934;10.330;2022-10-31T10:42:18;12.10;;;7.50;;
24761;SDS011;12865;51.934;10.330;2022-10-31T10:45:22;11.27;;;6.68;;
24761;SDS011;12865;51.934;10.330;2022-10-31T10:48:31;10.75;;;5.93;;
24761;SDS011;12865;51.934;10.330;2022-10-31T10:51:27;13.85;;;6.18;;
24761;SDS011;12865;51.934;10.330;2022-10-31T10:58:00;11.30;;;6.15;;
24761;SDS011;12865;51.934;10.330;2022-10-31T11:00:54;11.02;;;6.05;;
24761;SDS011;12865;51.934;10.330;2022-10-31T11:03:41;11.50;;;5.88;;
24761;SDS011;12865;51.934;10.330;2022-10-31T11:06:27;12.15;;;5.82;;
24761;SDS011;12865;51.934;10.330;2022-10-31T11:09:14;12.82;;;6.78;;
24761;SDS011;12865;51.934;10.330;2022-10-31T11:12:07;13.15;;;7.88;;
24761;SDS011;12865;51.934;10.330;2022-10-31T11:15:07;17.38;;;8.30;;
24761;SDS011;12865;51.934;10.330;2022-10-31T11:18:24;10.63;;;7.03;;
24761;SDS011;12865;51.934;10.330;2022-10-31T11:24:24;12.82;;;6.55;;
24761;SDS011;12865;51.934;10.330;2022-10-31T11:27:22;12.07;;;6.90;;
24761;SDS011;12865;51.934;10.330;2022-10-31T11:30:11;14.15;;;7.38;;
24761;SDS011;12865;51.934;10.330;2022-10-31T11:32:58;16.77;;;7.63;;
24761;SDS011;12865;51.934;10.330;2022-10-31T11:35:44;12.65;;;8.43;;
24761;SDS011;12865;51.934;10.330;2022-10-31T11:38:39;13.30;;;7.95;;
24761;SDS011;12865;51.934;10.330;2022-10-31T11:41:27;21.48;;;9.07;;
24761;SDS011;12865;51.934;10.330;2022-10-31T11:44:18;17.48;;;10.00;;
24761;SDS011;12865;51.934;10.330;2022-10-31T11:47:04;14.93;;;9.77;;
24761;SDS011;12865;51.934;10.330;2022-10-31T11:49:55;15.93;;;8.82;;
24761;SDS011;12865;51.934;10.330;2022-10-31T11:52:43;15.05;;;8.45;;
24761;SDS011;12865;51.934;10.330;2022-10-31T11:58:20;12.80;;;7.10;;
24761;SDS011;12865;51.934;10.330;2022-10-31T12:01:21;15.30;;;8.20;;
24761;SDS011;12865;51.934;10.330;2022-10-31T12:04:10;11.73;;;7.18;;
24761;SDS011;12865;51.934;10.330;2022-10-31T12:06:57;12.85;;;7.45;;
24761;SDS011;12865;51.934;10.330;2022-10-31T12:09:44;12.57;;;6.95;;
24761;SDS011;12865;51.934;10.330;2022-10-31T12:15:37;12.82;;;6.85;;
24761;SDS011;12865;51.934;10.330;2022-10-31T12:18:35;11.30;;;6.05;;
24761;SDS011;12865;51.934;10.330;2022-10-31T12:21:48;10.27;;;6.28;;
24761;SDS011;12865;51.934;10.330;2022-10-31T12:28:30;11.23;;;5.80;;
24761;SDS011;12865;51.934;10.330;2022-10-31T12:30:59;13.18;;;6.07;;
24761;SDS011;12865;51.934;10.330;2022-10-31T12:52:37;14.70;;;7.35;;
24761;SDS011;12865;51.934;10.330;2022-10-31T12:55:36;13.23;;;6.63;;
24761;SDS011;12865;51.934;10.330;2022-10-31T12:58:32;12.75;;;6.85;;
24761;SDS011;12865;51.934;10.330;2022-10-31T13:01:24;11.30;;;6.80;;
24761;SDS011;12865;51.934;10.330;2022-10-31T13:07:09;16.58;;;7.70;;
24761;SDS011;12865;51.934;10.330;2022-10-31T13:13:13;13.85;;;7.90;;
24761;SDS011;12865;51.934;10.330;2022-10-31T13:16:16;16.35;;;7.72;;
24761;SDS011;12865;51.934;10.330;2022-10-31T13:22:27;10.25;;;7.53;;
24761;SDS011;12865;51.934;10.330;2022-10-31T13:25:19;13.63;;;7.68;;
24761;SDS011;12865;51.934;10.330;2022-10-31T13:28:12;16.25;;;7.47;;
24761;SDS011;12865;51.934;10.330;2022-10-31T13:31:27;12.90;;;7.13;;
24761;SDS011;12865;51.934;10.330;2022-10-31T13:34:24;9.57;;;6.40;;
24761;SDS011;12865;51.934;10.330;2022-10-31T13:43:59;18.30;;;12.13;;
24761;SDS011;12865;51.934;10.330;2022-10-31T13:46:45;13.18;;;9.45;;
24761;SDS011;12865;51.934;10.330;2022-10-31T13:52:24;14.43;;;9.32;;
24761;SDS011;12865;51.934;10.330;2022-10-31T13:58:28;26.48;;;21.13;;
24761;SDS011;12865;51.934;10.330;2022-10-31T14:01:16;21.45;;;10.50;;
24761;SDS011;12865;51.934;10.330;2022-10-31T14:04:22;13.52;;;9.38;;
24761;SDS011;12865;51.934;10.330;2022-10-31T14:07:14;15.10;;;12.32;;
24761;SDS011;12865;51.934;10.330;2022-10-31T14:13:22;18.35;;;12.40;;
24761;SDS011;12865;51.934;10.330;2022-10-31T14:19:13;14.48;;;8.23;;
24761;SDS011;12865;51.934;10.330;2022-10-31T14:22:03;16.40;;;9.27;;
24761;SDS011;12865;51.934;10.330;2022-10-31T14:24:49;15.77;;;12.35;;
24761;SDS011;12865;51.934;10.330;2022-10-31T14:27:42;15.13;;;12.32;;
24761;SDS011;12865;51.934;10.330;2022-10-31T14:30:30;19.13;;;12.32;;
24761;SDS011;12865;51.934;10.330;2022-10-31T14:33:18;22.27;;;16.10;;
24761;SDS011;12865;51.934;10.330;2022-10-31T14:36:11;18.90;;;12.80;;
24761;SDS011;12865;51.934;10.330;2022-10-31T14:39:25;20.13;;;11.18;;
24761;SDS011;12865;51.934;10.330;2022-10-31T14:45:49;14.60;;;11.38;;
24761;SDS011;12865;51.934;10.330;2022-10-31T14:51:40;19.27;;;11.63;;
24761;SDS011;12865;51.934;10.330;2022-10-31T14:54:30;23.73;;;11.77;;
24761;SDS011;12865;51.934;10.330;2022-10-31T14:57:23;18.92;;;11.25;;
24761;SDS011;12865;51.934;10.330;2022-10-31T15:00:16;17.13;;;11.50;;
24761;SDS011;12865;51.934;10.330;2022-10-31T15:03:06;18.60;;;12.10;;
24761;SDS011;12865;51.934;10.330;2022-10-31T15:06:03;20.80;;;13.13;;
24761;SDS011;12865;51.934;10.330;2022-10-31T15:08:55;20.80;;;13.70;;
24761;SDS011;12865;51.934;10.330;2022-10-31T15:11:41;22.90;;;15.93;;
24761;SDS011;12865;51.934;10.330;2022-10-31T15:14:30;17.98;;;13.27;;
24761;SDS011;12865;51.934;10.330;2022-10-31T15:17:16;26.98;;;14.55;;
24761;SDS011;12865;51.934;10.330;2022-10-31T15:20:02;24.05;;;15.65;;
24761;SDS011;12865;51.934;10.330;2022-10-31T15:22:49;26.13;;;16.77;;
24761;SDS011;12865;51.934;10.330;2022-10-31T15:25:35;30.02;;;17.13;;
24761;SDS011;12865;51.934;10.330;2022-10-31T15:28:22;28.63;;;18.50;;
24761;SDS011;12865;51.934;10.330;2022-10-31T15:31:13;29.85;;;19.13;;
24761;SDS011;12865;51.934;10.330;2022-10-31T15:34:11;29.58;;;17.58;;
24761;SDS011;12865;51.934;10.330;2022-10-31T15:37:18;28.60;;;17.00;;
24761;SDS011;12865;51.934;10.330;2022-10-31T15:40:06;26.13;;;16.75;;
24761;SDS011;12865;51.934;10.330;2022-10-31T15:43:03;32.65;;;18.23;;
24761;SDS011;12865;51.934;10.330;2022-10-31T15:45:50;33.42;;;20.88;;
24761;SDS011;12865;51.934;10.330;2022-10-31T15:48:36;68.45;;;40.90;;
24761;SDS011;12865;51.934;10.330;2022-10-31T15:51:30;50.70;;;32.28;;
24761;SDS011;12865;51.934;10.330;2022-10-31T15:54:19;33.47;;;21.65;;
24761;SDS011;12865;51.934;10.330;2022-10-31T15:57:09;47.53;;;27.30;;
24761;SDS011;12865;51.934;10.330;2022-10-31T15:59:56;65.78;;;34.72;;
24761;SDS011;12865;51.934;10.330;2022-10-31T16:02:42;53.78;;;31.05;;
24761;SDS011;12865;51.934;10.330;2022-10-31T16:05:32;40.70;;;25.52;;
24761;SDS011;12865;51.934;10.330;2022-10-31T16:11:17;39.33;;;22.65;;
24761;SDS011;12865;51.934;10.330;2022-10-31T16:16:56;40.83;;;23.85;;
24761;SDS011;12865;51.934;10.330;2022-10-31T16:22:46;38.15;;;22.85;;
24761;SDS011;12865;51.934;10.330;2022-10-31T16:25:38;38.08;;;23.88;;
24761;SDS011;12865;51.934;10.330;2022-10-31T16:28:25;33.83;;;22.80;;
24761;SDS011;12865;51.934;10.330;2022-10-31T16:31:14;42.22;;;25.10;;
24761;SDS011;12865;51.934;10.330;2022-10-31T16:34:42;41.08;;;24.67;;
24761;SDS011;12865;51.934;10.330;2022-10-31T16:39:54;39.78;;;24.05;;
24761;SDS011;12865;51.934;10.330;2022-10-31T16:42:40;39.67;;;24.40;;
24761;SDS011;12865;51.934;10.330;2022-10-31T16:45:28;38.85;;;25.73;;
24761;SDS011;12865;51.934;10.330;2022-10-31T16:48:16;45.45;;;27.05;;
24761;SDS011;12865;51.934;10.330;2022-10-31T16:51:06;39.83;;;26.95;;
24761;SDS011;12865;51.934;10.330;2022-10-31T16:53:52;49.00;;;29.70;;
24761;SDS011;12865;51.934;10.330;2022-10-31T16:56:38;45.70;;;28.67;;
24761;SDS011;12865;51.934;10.330;2022-10-31T16:59:24;52.80;;;31.65;;
24761;SDS011;12865;51.934;10.330;2022-10-31T17:02:14;43.60;;;26.83;;
24761;SDS011;12865;51.934;10.330;2022-10-31T17:05:00;46.28;;;26.88;;
24761;SDS011;12865;51.934;10.330;2022-10-31T17:07:47;42.72;;;27.02;;
24761;SDS011;12865;51.934;10.330;2022-10-31T17:10:33;48.92;;;26.95;;
24761;SDS011;12865;51.934;10.330;2022-10-31T17:13:20;42.28;;;25.70;;
24761;SDS011;12865;51.934;10.330;2022-10-31T17:16:08;39.10;;;25.47;;
24761;SDS011;12865;51.934;10.330;2022-10-31T17:18:54;38.78;;;24.27;;
24761;SDS011;12865;51.934;10.330;2022-10-31T17:21:39;34.33;;;22.38;;
24761;SDS011;12865;51.934;10.330;2022-10-31T17:24:25;35.58;;;21.55;;
24761;SDS011;12865;51.934;10.330;2022-10-31T17:27:11;31.15;;;21.05;;
24761;SDS011;12865;51.934;10.330;2022-10-31T17:29:57;33.42;;;20.90;;
24761;SDS011;12865;51.934;10.330;2022-10-31T17:32:42;29.67;;;19.45;;
24761;SDS011;12865;51.934;10.330;2022-10-31T17:35:29;35.60;;;20.75;;
24761;SDS011;12865;51.934;10.330;2022-10-31T17:38:15;26.88;;;16.20;;
24761;SDS011;12865;51.934;10.330;2022-10-31T17:41:03;22.60;;;15.18;;
24761;SDS011;12865;51.934;10.330;2022-10-31T17:43:53;22.88;;;16.05;;
24761;SDS011;12865;51.934;10.330;2022-10-31T17:46:40;24.77;;;15.43;;
24761;SDS011;12865;51.934;10.330;2022-10-31T17:49:26;23.20;;;16.65;;
24761;SDS011;12865;51.934;10.330;2022-10-31T17:52:11;22.10;;;15.23;;
24761;SDS011;12865;51.934;10.330;2022-10-31T17:54:57;28.65;;;16.83;;
24761;SDS011;12865;51.934;10.330;2022-10-31T17:57:43;25.58;;;16.70;;
24761;SDS011;12865;51.934;10.330;2022-10-31T18:00:29;25.77;;;16.98;;
24761;SDS011;12865;51.934;10.330;2022-10-31T18:03:15;24.05;;;14.88;;
24761;SDS011;12865;51.934;10.330;2022-10-31T18:06:01;25.85;;;15.57;;
24761;SDS011;12865;51.934;10.330;2022-10-31T18:08:46;20.40;;;14.98;;
24761;SDS011;12865;51.934;10.330;2022-10-31T18:11:32;24.55;;;15.40;;
24761;SDS011;12865;51.934;10.330;2022-10-31T18:14:18;22.77;;;13.82;;
24761;SDS011;12865;51.934;10.330;2022-10-31T18:17:03;22.95;;;14.38;;
24761;SDS011;12865;51.934;10.330;2022-10-31T18:19:49;22.73;;;15.02;;
24761;SDS011;12865;51.934;10.330;2022-10-31T18:22:35;19.95;;;14.55;;
24761;SDS011;12865;51.934;10.330;2022-10-31T18:25:20;24.55;;;15.65;;
24761;SDS011;12865;51.934;10.330;2022-10-31T18:28:06;23.50;;;14.85;;
24761;SDS011;12865;51.934;10.330;2022-10-31T18:30:52;25.63;;;16.20;;